Time;durP1;ratioP1;P1;durP2;ratioP2;P2;SDS_P1;SDS_P2;PMS_P1;PMS_P2;Temp;Humidity;BMP_temperature;BMP_pressure;BME280_temperature;BME280_humidity;BME280_pressure;Samples;Min_cycle;Max_cycle;Signal;HPM_P1;HPM_P2
2021/07/13 00:00:37;;;;;;;12.73;5.20;;;;;;;;;;5030280;28;20028;-66
2021/07/13 00:03:04;;;;;;;7.80;5.60;;;;;;;;;;5030248;28;20029;-66
2021/07/13 00:05:29;;;;;;;13.27;7.18;;;;;;;;;;5030074;28;20474;-66
2021/07/13 00:07:55;;;;;;;9.80;6.53;;;;;;;;;;5030319;28;20032;-66
2021/07/13 00:10:24;;;;;;;14.05;7.43;;;;;;;;;;5029310;28;20382;-66
2021/07/13 00:12:50;;;;;;;9.77;5.70;;;;;;;;;;5023093;28;20026;-66
2021/07/13 00:15:24;;;;;;;15.20;6.35;;;;;;;;;;5030123;28;20034;-66
2021/07/13 00:17:50;;;;;;;11.40;5.90;;;;;;;;;;5031107;28;20018;-66
2021/07/13 00:20:15;;;;;;;12.40;5.18;;;;;;;;;;5029852;28;20029;-66
2021/07/13 00:22:40;;;;;;;12.82;5.60;;;;;;;;;;5029987;28;20473;-66
2021/07/13 00:25:05;;;;;;;11.05;5.53;;;;;;;;;;5029007;28;20021;-66
2021/07/13 00:27:31;;;;;;;12.80;5.13;;;;;;;;;;5030418;28;20473;-66
2021/07/13 00:29:56;;;;;;;14.35;5.38;;;;;;;;;;5029941;28;20032;-66
2021/07/13 00:32:21;;;;;;;16.20;7.67;;;;;;;;;;5030399;28;20021;-66
2021/07/13 00:34:46;;;;;;;13.52;6.47;;;;;;;;;;5030070;28;20380;-66
2021/07/13 00:37:11;;;;;;;10.97;6.60;;;;;;;;;;5029844;28;20032;-66
2021/07/13 00:39:37;;;;;;;8.90;6.27;;;;;;;;;;5029861;28;20314;-66
2021/07/13 00:42:02;;;;;;;11.53;6.63;;;;;;;;;;5029252;28;20272;-66
2021/07/13 00:44:27;;;;;;;13.65;8.20;;;;;;;;;;5029915;28;20032;-66
2021/07/13 00:46:53;;;;;;;19.42;8.65;;;;;;;;;;5029627;28;20029;-65
2021/07/13 00:49:18;;;;;;;16.63;7.88;;;;;;;;;;5030337;28;20071;-66
2021/07/13 00:51:44;;;;;;;12.52;7.05;;;;;;;;;;5029914;28;20534;-66
2021/07/13 00:54:09;;;;;;;14.88;6.68;;;;;;;;;;5029946;28;20021;-65
2021/07/13 00:56:43;;;;;;;19.58;7.82;;;;;;;;;;5028622;28;20014;-66
2021/07/13 00:59:08;;;;;;;14.45;6.35;;;;;;;;;;5029965;28;20056;-66
2021/07/13 01:01:34;;;;;;;10.05;7.05;;;;;;;;;;5029614;28;20493;-66
2021/07/13 01:04:00;;;;;;;19.80;8.15;;;;;;;;;;5012755;28;20113;-66
2021/07/13 01:06:28;;;;;;;10.65;8.23;;;;;;;;;;5011828;28;20033;-66
2021/07/13 01:08:55;;;;;;;13.27;7.78;;;;;;;;;;5029695;28;20600;-66
2021/07/13 01:11:23;;;;;;;11.25;8.07;;;;;;;;;;5028625;28;20378;-66
2021/07/13 01:14:07;;;;;;;18.80;8.05;;;;;;;;;;5030306;28;20044;-66
2021/07/13 01:16:45;;;;;;;13.00;9.55;;;;;;;;;;5029693;28;20549;-66
2021/07/13 01:19:25;;;;;;;19.30;8.98;;;;;;;;;;5030022;28;20030;-66
2021/07/13 01:22:10;;;;;;;16.17;10.13;;;;;;;;;;5027007;28;20121;-66
2021/07/13 01:24:53;;;;;;;17.08;10.18;;;;;;;;;;5029261;28;20099;-66
2021/07/13 01:27:30;;;;;;;13.40;9.18;;;;;;;;;;5027976;28;20033;-65
2021/07/13 01:29:56;;;;;;;22.95;10.40;;;;;;;;;;5029099;28;20017;-66
2021/07/13 01:32:23;;;;;;;12.95;9.07;;;;;;;;;;5032406;28;20033;-65
2021/07/13 01:34:54;;;;;;;16.60;9.15;;;;;;;;;;5033097;28;20096;-65
2021/07/13 01:37:19;;;;;;;13.07;9.05;;;;;;;;;;5033313;28;20036;-64
2021/07/13 01:39:45;;;;;;;14.50;8.88;;;;;;;;;;5032940;28;20029;-65
2021/07/13 01:42:10;;;;;;;11.43;8.48;;;;;;;;;;5030675;28;20040;-65
2021/07/13 01:44:36;;;;;;;17.70;7.97;;;;;;;;;;5033217;28;20056;-66
2021/07/13 01:47:02;;;;;;;11.80;8.30;;;;;;;;;;5033093;28;20355;-65
2021/07/13 01:49:27;;;;;;;11.65;7.85;;;;;;;;;;5033086;28;20108;-65
2021/07/13 01:51:53;;;;;;;14.15;8.20;;;;;;;;;;5030417;28;20408;-66
2021/07/13 01:54:20;;;;;;;14.98;8.48;;;;;;;;;;5038972;28;20085;-65
2021/07/13 01:56:46;;;;;;;9.73;7.70;;;;;;;;;;5014797;28;20114;-66
2021/07/13 01:59:13;;;;;;;8.68;6.97;;;;;;;;;;5025160;28;20490;-65
2021/07/13 02:01:39;;;;;;;10.75;7.28;;;;;;;;;;5032078;28;20037;-64
2021/07/13 02:04:04;;;;;;;12.60;7.38;;;;;;;;;;5033133;28;20339;-65
2021/07/13 02:06:30;;;;;;;13.48;7.38;;;;;;;;;;5032716;28;20052;-65
2021/07/13 02:08:56;;;;;;;14.77;7.80;;;;;;;;;;5030941;28;20525;-65
2021/07/13 02:11:22;;;;;;;12.13;7.68;;;;;;;;;;5032151;28;20074;-65
2021/07/13 02:13:47;;;;;;;15.38;7.57;;;;;;;;;;5032880;28;20096;-65
2021/07/13 02:16:12;;;;;;;12.10;7.95;;;;;;;;;;5032930;28;20021;-65
2021/07/13 02:18:37;;;;;;;12.32;8.23;;;;;;;;;;5032310;28;20018;-65
2021/07/13 02:21:03;;;;;;;19.00;8.93;;;;;;;;;;5032364;28;20018;-65
2021/07/13 02:23:28;;;;;;;15.23;9.23;;;;;;;;;;5032396;28;20439;-65
2021/07/13 02:25:55;;;;;;;15.45;10.00;;;;;;;;;;5031929;28;20371;-65
2021/07/13 02:28:23;;;;;;;15.15;10.52;;;;;;;;;;5032192;28;20390;-64
2021/07/13 02:30:50;;;;;;;18.02;10.15;;;;;;;;;;5031414;28;20035;-66
2021/07/13 02:33:19;;;;;;;19.38;10.02;;;;;;;;;;5032676;28;20021;-66
2021/07/13 02:35:47;;;;;;;17.77;11.60;;;;;;;;;;5031697;28;20026;-65
2021/07/13 02:38:13;;;;;;;19.73;11.52;;;;;;;;;;5032614;28;20679;-65
2021/07/13 02:40:38;;;;;;;15.90;11.57;;;;;;;;;;5032057;28;20025;-65
2021/07/13 02:43:05;;;;;;;19.52;12.65;;;;;;;;;;5030731;28;20021;-65
2021/07/13 02:45:30;;;;;;;23.70;12.05;;;;;;;;;;5031677;28;20025;-65
2021/07/13 02:47:56;;;;;;;18.98;13.00;;;;;;;;;;5031945;28;20105;-64
2021/07/13 02:50:22;;;;;;;22.70;15.88;;;;;;;;;;5030914;28;20041;-65
2021/07/13 02:52:48;;;;;;;24.20;13.50;;;;;;;;;;5031617;28;20056;-65
2021/07/13 02:55:17;;;;;;;28.70;15.05;;;;;;;;;;5028221;28;20030;-62
2021/07/13 02:57:43;;;;;;;25.35;16.13;;;;;;;;;;5029902;28;20020;-63
2021/07/13 03:00:10;;;;;;;26.10;15.30;;;;;;;;;;5031438;28;20486;-62
2021/07/13 03:02:36;;;;;;;30.25;17.33;;;;;;;;;;5031245;28;20068;-62
2021/07/13 03:05:02;;;;;;;32.47;19.38;;;;;;;;;;5031487;28;20075;-62
2021/07/13 03:07:28;;;;;;;33.10;18.75;;;;;;;;;;5005015;28;20025;-63
2021/07/13 03:09:53;;;;;;;35.45;20.55;;;;;;;;;;5030857;28;20017;-62
2021/07/13 03:12:19;;;;;;;36.80;20.88;;;;;;;;;;5030678;28;20014;-63
2021/07/13 03:14:44;;;;;;;34.25;20.83;;;;;;;;;;5030753;28;20475;-63
2021/07/13 03:17:10;;;;;;;37.92;22.35;;;;;;;;;;5031538;28;20032;-62
2021/07/13 03:19:36;;;;;;;41.25;22.55;;;;;;;;;;5031483;28;20017;-62
2021/07/13 03:22:01;;;;;;;39.00;22.52;;;;;;;;;;5031054;28;20018;-63
2021/07/13 03:24:27;;;;;;;43.78;23.40;;;;;;;;;;5030349;28;20555;-62
2021/07/13 03:26:55;;;;;;;35.03;22.35;;;;;;;;;;5030723;28;20025;-62
2021/07/13 03:29:20;;;;;;;37.85;23.77;;;;;;;;;;5028776;28;20097;-63
2021/07/13 03:31:46;;;;;;;41.75;23.83;;;;;;;;;;5031255;28;20025;-63
2021/07/13 03:34:11;;;;;;;37.83;23.10;;;;;;;;;;5030885;28;20602;-62
2021/07/13 03:36:37;;;;;;;45.47;23.67;;;;;;;;;;5030927;28;20037;-63
2021/07/13 03:39:03;;;;;;;36.08;21.23;;;;;;;;;;5030011;28;20261;-63
2021/07/13 03:41:29;;;;;;;39.22;22.25;;;;;;;;;;5057916;22;20045;-65
2021/07/13 03:43:55;;;;;;;37.97;20.02;;;;;;;;;;5070884;28;20027;-65
2021/07/13 03:46:20;;;;;;;39.33;20.25;;;;;;;;;;5068635;28;20773;-65
2021/07/13 03:48:46;;;;;;;32.35;19.95;;;;;;;;;;5085978;28;20028;-65
2021/07/13 03:51:20;;;;;;;30.08;19.17;;;;;;;;;;5070958;28;20016;-65
2021/07/13 03:53:45;;;;;;;27.27;16.42;;;;;;;;;;5061067;28;20028;-65
2021/07/13 03:56:10;;;;;;;28.77;17.23;;;;;;;;;;5052412;28;20174;-65
2021/07/13 03:58:35;;;;;;;29.77;16.97;;;;;;;;;;5062310;28;20278;-65
2021/07/13 04:01:01;;;;;;;25.42;17.10;;;;;;;;;;5053631;28;20267;-67
2021/07/13 04:03:26;;;;;;;26.23;16.58;;;;;;;;;;5053758;28;20058;-67
2021/07/13 04:05:51;;;;;;;25.03;16.23;;;;;;;;;;5059498;28;20039;-67
2021/07/13 04:08:16;;;;;;;28.17;15.70;;;;;;;;;;5050619;28;20309;-67
2021/07/13 04:10:41;;;;;;;24.65;16.63;;;;;;;;;;5052454;28;20282;-67
2021/07/13 04:13:07;;;;;;;22.73;14.50;;;;;;;;;;5048702;28;20025;-67
2021/07/13 04:15:32;;;;;;;28.10;16.25;;;;;;;;;;5050772;28;20021;-67
2021/07/13 04:17:57;;;;;;;21.30;14.27;;;;;;;;;;5063803;28;20029;-67
2021/07/13 04:20:22;;;;;;;26.27;15.82;;;;;;;;;;5050498;28;20033;-67
2021/07/13 04:22:49;;;;;;;25.30;14.73;;;;;;;;;;5048544;28;20025;-66
2021/07/13 04:25:14;;;;;;;25.48;15.80;;;;;;;;;;5048294;28;20775;-67
2021/07/13 04:27:41;;;;;;;27.98;14.32;;;;;;;;;;5052730;28;20121;-67
2021/07/13 04:30:06;;;;;;;21.60;14.73;;;;;;;;;;5062740;28;20013;-67
2021/07/13 04:32:32;;;;;;;22.08;15.00;;;;;;;;;;5039933;28;20469;-66
2021/07/13 04:34:57;;;;;;;25.50;14.75;;;;;;;;;;5054932;28;20056;-66
2021/07/13 04:37:22;;;;;;;20.70;15.40;;;;;;;;;;5049452;28;20144;-67
2021/07/13 04:39:47;;;;;;;30.50;15.82;;;;;;;;;;5056128;28;20751;-67
2021/07/13 04:42:13;;;;;;;26.83;15.63;;;;;;;;;;5058925;28;20389;-67
2021/07/13 04:44:38;;;;;;;28.33;16.63;;;;;;;;;;5050924;28;20282;-66
2021/07/13 04:47:03;;;;;;;25.50;14.93;;;;;;;;;;5060032;28;20041;-66
2021/07/13 04:49:31;;;;;;;20.25;14.35;;;;;;;;;;5053258;28;20350;-66
2021/07/13 04:51:57;;;;;;;24.77;15.38;;;;;;;;;;5052814;28;20013;-67
2021/07/13 04:54:22;;;;;;;29.35;17.65;;;;;;;;;;5058769;28;20078;-67
2021/07/13 04:56:47;;;;;;;29.53;17.40;;;;;;;;;;5060888;28;20025;-67
2021/07/13 04:59:13;;;;;;;26.67;17.20;;;;;;;;;;5050388;28;20299;-66
2021/07/13 05:01:38;;;;;;;28.03;17.80;;;;;;;;;;5051515;28;20333;-67
2021/07/13 05:04:03;;;;;;;31.88;19.58;;;;;;;;;;5043637;28;20275;-66
2021/07/13 05:06:28;;;;;;;27.90;19.58;;;;;;;;;;5060489;28;20090;-66
2021/07/13 05:08:55;;;;;;;34.57;18.87;;;;;;;;;;5050176;28;20032;-66
2021/07/13 05:11:20;;;;;;;29.00;18.58;;;;;;;;;;5034755;28;20260;-66
2021/07/13 05:13:45;;;;;;;27.53;17.97;;;;;;;;;;5040896;28;20040;-66
2021/07/13 05:16:11;;;;;;;32.40;17.52;;;;;;;;;;5046357;28;20354;-66
2021/07/13 05:18:36;;;;;;;30.33;18.60;;;;;;;;;;5051575;28;20036;-66
2021/07/13 05:21:04;;;;;;;29.75;18.13;;;;;;;;;;5060613;28;20755;-66
2021/07/13 05:23:30;;;;;;;40.30;21.00;;;;;;;;;;5067395;28;20025;-66
2021/07/13 05:25:55;;;;;;;37.22;21.98;;;;;;;;;;5059158;28;20032;-66
2021/07/13 05:28:20;;;;;;;33.27;21.70;;;;;;;;;;5062307;28;20508;-66
2021/07/13 05:30:46;;;;;;;44.88;24.58;;;;;;;;;;5056284;28;20278;-67
2021/07/13 05:33:12;;;;;;;45.70;26.75;;;;;;;;;;5052073;28;20023;-66
2021/07/13 05:35:37;;;;;;;44.45;23.90;;;;;;;;;;5050135;28;20028;-66
2021/07/13 05:38:03;;;;;;;49.17;26.40;;;;;;;;;;5042380;28;20385;-66
2021/07/13 05:40:28;;;;;;;46.40;25.65;;;;;;;;;;5050197;28;20295;-66
2021/07/13 05:42:53;;;;;;;52.13;26.08;;;;;;;;;;5048098;28;20047;-66
2021/07/13 05:45:19;;;;;;;47.90;25.65;;;;;;;;;;5050899;28;20040;-66
2021/07/13 05:47:44;;;;;;;45.63;25.02;;;;;;;;;;5059064;28;20025;-66
2021/07/13 05:50:10;;;;;;;43.25;26.10;;;;;;;;;;5055505;28;20429;-66
2021/07/13 05:52:35;;;;;;;44.58;24.48;;;;;;;;;;5056889;28;20021;-67
2021/07/13 05:55:00;;;;;;;46.25;24.95;;;;;;;;;;5057773;28;20019;-66
2021/07/13 05:57:26;;;;;;;54.08;27.73;;;;;;;;;;5065823;28;20028;-67
2021/07/13 05:59:52;;;;;;;51.95;26.45;;;;;;;;;;5050861;28;20031;-66
2021/07/13 06:02:17;;;;;;;53.55;25.40;;;;;;;;;;5054887;28;20068;-67
2021/07/13 06:04:42;;;;;;;46.50;23.53;;;;;;;;;;5058132;28;20028;-66
2021/07/13 06:07:07;;;;;;;42.33;22.00;;;;;;;;;;5061298;28;20287;-66
2021/07/13 06:09:32;;;;;;;47.53;23.97;;;;;;;;;;5054496;28;20260;-66
2021/07/13 06:11:58;;;;;;;37.70;21.63;;;;;;;;;;5053596;28;20264;-66
2021/07/13 06:14:23;;;;;;;41.47;23.35;;;;;;;;;;5056558;28;20742;-66
2021/07/13 06:16:49;;;;;;;42.20;23.45;;;;;;;;;;5059720;28;20093;-65
2021/07/13 06:19:14;;;;;;;39.45;22.88;;;;;;;;;;5052068;28;20485;-66
2021/07/13 06:21:39;;;;;;;39.17;23.58;;;;;;;;;;5057506;28;20051;-66
2021/07/13 06:24:04;;;;;;;46.53;22.70;;;;;;;;;;5039341;28;20105;-66
2021/07/13 06:26:30;;;;;;;35.55;21.30;;;;;;;;;;5047957;28;20925;-67
2021/07/13 06:28:55;;;;;;;37.92;21.05;;;;;;;;;;5050694;28;20025;-66
2021/07/13 06:31:20;;;;;;;36.17;21.88;;;;;;;;;;5050462;28;20496;-67
2021/07/13 06:33:45;;;;;;;44.43;22.13;;;;;;;;;;5055586;28;20017;-67
2021/07/13 06:36:10;;;;;;;41.57;23.83;;;;;;;;;;5063690;28;20260;-67
2021/07/13 06:38:36;;;;;;;45.42;25.38;;;;;;;;;;5068486;28;20840;-66
2021/07/13 06:41:01;;;;;;;53.63;27.30;;;;;;;;;;5071303;28;20016;-66
2021/07/13 06:43:26;;;;;;;60.43;27.57;;;;;;;;;;5057424;28;20102;-66
2021/07/13 06:45:51;;;;;;;54.90;28.23;;;;;;;;;;5057123;28;20369;-66
2021/07/13 06:48:17;;;;;;;57.78;27.88;;;;;;;;;;5071072;28;20605;-66
2021/07/13 06:50:42;;;;;;;59.45;28.08;;;;;;;;;;5071894;28;20023;-66
2021/07/13 06:53:07;;;;;;;59.05;28.92;;;;;;;;;;5059062;28;20059;-66
2021/07/13 06:55:33;;;;;;;60.10;29.60;;;;;;;;;;5057214;28;20380;-67
2021/07/13 06:57:58;;;;;;;62.85;29.98;;;;;;;;;;5063387;28;20270;-66
2021/07/13 07:00:23;;;;;;;60.22;29.25;;;;;;;;;;5057965;28;20024;-66
2021/07/13 07:02:48;;;;;;;60.07;30.93;;;;;;;;;;5061824;28;20066;-67
2021/07/13 07:05:14;;;;;;;64.85;32.78;;;;;;;;;;5062758;28;20267;-67
2021/07/13 07:07:43;;;;;;;72.90;32.83;;;;;;;;;;5062848;28;20310;-67
2021/07/13 07:10:08;;;;;;;76.95;33.15;;;;;;;;;;5069807;28;20016;-66
2021/07/13 07:12:34;;;;;;;69.63;33.20;;;;;;;;;;5066166;28;20025;-66
2021/07/13 07:14:59;;;;;;;78.60;35.35;;;;;;;;;;5054038;28;20028;-66
2021/07/13 07:17:24;;;;;;;67.83;32.90;;;;;;;;;;5056218;28;20082;-66
2021/07/13 07:19:49;;;;;;;75.47;32.87;;;;;;;;;;5069557;28;20361;-66
2021/07/13 07:22:14;;;;;;;72.37;33.53;;;;;;;;;;5060191;28;20275;-67
2021/07/13 07:24:39;;;;;;;76.83;34.60;;;;;;;;;;5053843;28;20134;-67
2021/07/13 07:27:05;;;;;;;58.43;29.77;;;;;;;;;;5063770;28;20290;-66
2021/07/13 07:29:30;;;;;;;67.30;30.03;;;;;;;;;;5056652;28;20074;-66
2021/07/13 07:31:55;;;;;;;64.20;31.40;;;;;;;;;;5071443;28;20778;-66
2021/07/13 07:34:20;;;;;;;63.37;31.07;;;;;;;;;;5056380;28;20290;-66
2021/07/13 07:36:45;;;;;;;73.87;34.10;;;;;;;;;;5058827;28;20263;-66
2021/07/13 07:39:10;;;;;;;64.73;32.13;;;;;;;;;;5068560;28;20663;-66
2021/07/13 07:41:36;;;;;;;63.85;32.15;;;;;;;;;;5064181;28;20302;-67
2021/07/13 07:44:01;;;;;;;69.03;32.53;;;;;;;;;;5062003;28;20029;-66
2021/07/13 07:46:26;;;;;;;57.70;30.17;;;;;;;;;;5051131;28;20346;-66
2021/07/13 07:48:51;;;;;;;52.30;28.23;;;;;;;;;;5056194;28;20267;-66
2021/07/13 07:51:17;;;;;;;53.78;27.63;;;;;;;;;;5064342;28;20024;-66
2021/07/13 07:53:42;;;;;;;56.22;28.75;;;;;;;;;;5068538;28;20048;-66
2021/07/13 07:56:07;;;;;;;50.53;27.13;;;;;;;;;;5054856;28;20074;-66
2021/07/13 07:58:32;;;;;;;48.13;27.67;;;;;;;;;;5054986;28;20278;-66
2021/07/13 08:00:57;;;;;;;49.10;26.93;;;;;;;;;;5059274;28;20127;-66
2021/07/13 08:03:23;;;;;;;57.03;28.13;;;;;;;;;;5049908;28;20678;-66
2021/07/13 08:05:52;;;;;;;50.10;25.95;;;;;;;;;;5058856;28;20032;-66
2021/07/13 08:08:17;;;;;;;56.03;26.52;;;;;;;;;;5067436;28;20039;-66
2021/07/13 08:10:42;;;;;;;44.30;24.47;;;;;;;;;;5050679;28;20021;-66
2021/07/13 08:13:07;;;;;;;40.67;23.30;;;;;;;;;;5051519;28;20259;-66
2021/07/13 08:15:32;;;;;;;41.67;23.20;;;;;;;;;;5051131;28;20715;-66
2021/07/13 08:17:58;;;;;;;43.70;23.80;;;;;;;;;;5050490;28;20025;-66
2021/07/13 08:20:23;;;;;;;42.97;24.77;;;;;;;;;;5052101;28;20424;-66
2021/07/13 08:22:49;;;;;;;38.38;23.50;;;;;;;;;;5066252;28;20346;-67
2021/07/13 08:25:15;;;;;;;45.95;23.35;;;;;;;;;;5060573;28;20025;-65
2021/07/13 08:27:41;;;;;;;42.17;22.77;;;;;;;;;;5050464;28;20392;-67
2021/07/13 08:30:06;;;;;;;42.65;20.85;;;;;;;;;;5064172;28;20036;-67
2021/07/13 08:32:32;;;;;;;37.28;21.98;;;;;;;;;;5053260;28;20024;-66
2021/07/13 08:34:57;;;;;;;37.53;20.70;;;;;;;;;;5050425;28;20037;-66
2021/07/13 08:37:22;;;;;;;38.35;22.15;;;;;;;;;;5050312;28;20274;-66
2021/07/13 08:39:48;;;;;;;40.80;21.77;;;;;;;;;;5054685;28;20051;-66
2021/07/13 08:42:14;;;;;;;37.60;21.15;;;;;;;;;;5058875;28;20553;-66
2021/07/13 08:44:39;;;;;;;34.95;21.75;;;;;;;;;;5060749;28;20078;-66
2021/07/13 08:47:04;;;;;;;39.73;20.63;;;;;;;;;;5053801;28;20021;-66
2021/07/13 08:49:29;;;;;;;30.83;20.30;;;;;;;;;;5053378;28;20264;-66
2021/07/13 08:51:54;;;;;;;36.17;20.60;;;;;;;;;;5047596;28;20605;-66
2021/07/13 08:54:20;;;;;;;34.10;21.13;;;;;;;;;;5053833;28;20744;-66
2021/07/13 08:56:45;;;;;;;37.88;20.75;;;;;;;;;;5067554;28;20382;-66
2021/07/13 08:59:10;;;;;;;39.60;20.10;;;;;;;;;;5064510;28;20021;-66
2021/07/13 09:01:35;;;;;;;33.53;19.63;;;;;;;;;;5059440;28;20365;-66
2021/07/13 09:04:04;;;;;;;37.10;21.88;;;;;;;;;;5055252;28;20474;-66
2021/07/13 09:06:47;;;;;;;34.47;20.42;;;;;;;;;;5054377;28;20032;-66
2021/07/13 09:09:20;;;;;;;33.10;19.40;;;;;;;;;;5064469;28;20009;-65
2021/07/13 09:11:46;;;;;;;32.90;19.73;;;;;;;;;;5069829;28;20358;-66
2021/07/13 09:14:11;;;;;;;31.45;20.05;;;;;;;;;;5073533;28;20095;-66
2021/07/13 09:16:36;;;;;;;32.60;19.97;;;;;;;;;;5068422;28;20092;-65
2021/07/13 09:19:02;;;;;;;30.13;20.23;;;;;;;;;;5058832;28;20275;-65
2021/07/13 09:21:32;;;;;;;32.40;20.45;;;;;;;;;;5053243;28;20340;-66
2021/07/13 09:24:04;;;;;;;33.63;20.42;;;;;;;;;;5062067;28;20450;-65
2021/07/13 09:26:41;;;;;;;36.20;20.83;;;;;;;;;;5058815;28;20029;-66
2021/07/13 09:29:07;;;;;;;34.30;21.05;;;;;;;;;;5061334;28;20385;-66
2021/07/13 09:31:32;;;;;;;30.90;20.02;;;;;;;;;;5055271;28;20019;-66
2021/07/13 09:33:57;;;;;;;30.92;20.23;;;;;;;;;;5055661;28;20560;-66
2021/07/13 09:36:22;;;;;;;33.83;20.40;;;;;;;;;;5071465;28;20017;-66
2021/07/13 09:38:48;;;;;;;34.10;21.07;;;;;;;;;;5056326;28;20264;-66
2021/07/13 09:41:17;;;;;;;29.42;19.48;;;;;;;;;;5071517;28;20016;-66
2021/07/13 09:43:47;;;;;;;28.13;17.43;;;;;;;;;;5071398;22;20055;-65
2021/07/13 09:46:21;;;;;;;32.13;18.88;;;;;;;;;;5049894;28;20661;-65
2021/07/13 09:49:04;;;;;;;27.52;18.05;;;;;;;;;;5037551;28;20056;-64
2021/07/13 09:51:30;;;;;;;24.98;17.58;;;;;;;;;;5052503;28;20029;-64
2021/07/13 09:53:55;;;;;;;28.70;18.20;;;;;;;;;;5041176;28;20535;-65
2021/07/13 09:56:36;;;;;;;25.77;16.20;;;;;;;;;;5030777;28;20287;-64
2021/07/13 09:59:01;;;;;;;22.42;15.82;;;;;;;;;;5029242;28;20319;-65
2021/07/13 10:01:27;;;;;;;27.03;15.50;;;;;;;;;;5032669;28;20285;-65
2021/07/13 10:03:52;;;;;;;32.88;16.42;;;;;;;;;;5032476;28;20652;-65
2021/07/13 10:06:17;;;;;;;23.30;15.27;;;;;;;;;;5032062;28;20021;-64
2021/07/13 10:08:43;;;;;;;27.83;15.60;;;;;;;;;;5029385;28;20420;-65
2021/07/13 10:11:08;;;;;;;20.10;15.30;;;;;;;;;;5030410;28;20284;-65
2021/07/13 10:13:34;;;;;;;19.97;14.10;;;;;;;;;;5032395;28;20325;-65
2021/07/13 10:15:59;;;;;;;19.27;13.15;;;;;;;;;;5028409;28;20264;-65
2021/07/13 10:18:25;;;;;;;26.15;14.73;;;;;;;;;;5032423;28;20029;-64
2021/07/13 10:20:51;;;;;;;19.08;14.45;;;;;;;;;;5032596;28;20083;-65
2021/07/13 10:23:16;;;;;;;19.42;13.52;;;;;;;;;;5031999;28;20053;-65
2021/07/13 10:25:44;;;;;;;17.77;12.75;;;;;;;;;;5026747;28;20033;-65
2021/07/13 10:28:10;;;;;;;18.65;13.57;;;;;;;;;;5013885;28;20377;-64
2021/07/13 10:30:37;;;;;;;19.67;12.88;;;;;;;;;;5020489;28;20026;-65
2021/07/13 10:33:02;;;;;;;22.88;13.23;;;;;;;;;;5044588;28;20464;-64
2021/07/13 10:35:28;;;;;;;17.20;12.32;;;;;;;;;;5034031;28;20037;-65
2021/07/13 10:37:54;;;;;;;20.05;12.23;;;;;;;;;;5017955;28;20537;-65
2021/07/13 10:40:25;;;;;;;20.55;13.35;;;;;;;;;;5023053;28;20036;-65
2021/07/13 10:42:52;;;;;;;17.65;11.75;;;;;;;;;;5031238;28;20032;-65
2021/07/13 10:45:47;;;;;;;17.80;12.65;;;;;;;;;;5031393;28;20033;-65
2021/07/13 10:48:20;;;;;;;21.20;13.25;;;;;;;;;;4991190;28;20108;-65
2021/07/13 10:50:48;;;;;;;17.63;12.60;;;;;;;;;;5031154;28;20025;-65
2021/07/13 10:53:14;;;;;;;16.13;13.02;;;;;;;;;;5027522;28;20057;-65
2021/07/13 10:55:40;;;;;;;17.50;13.40;;;;;;;;;;5022930;28;20021;-64
2021/07/13 10:58:14;;;;;;;24.77;13.63;;;;;;;;;;5031633;28;20064;-65
2021/07/13 11:00:48;;;;;;;21.92;15.05;;;;;;;;;;5030950;28;20056;-64
2021/07/13 11:03:29;;;;;;;20.20;14.80;;;;;;;;;;5030814;28;20021;-65
2021/07/13 11:05:57;;;;;;;19.40;13.90;;;;;;;;;;5005881;28;20425;-66
2021/07/13 11:11:06;;;;;;;22.85;15.23;;;;;;;;;;5030326;28;20404;-66
2021/07/13 11:13:31;;;;;;;26.50;14.68;;;;;;;;;;5031399;28;20297;-66
2021/07/13 11:15:56;;;;;;;19.13;12.98;;;;;;;;;;5030682;28;20049;-66
2021/07/13 11:18:25;;;;;;;19.38;13.18;;;;;;;;;;5031240;28;20040;-66
2021/07/13 11:20:50;;;;;;;19.63;14.05;;;;;;;;;;5031203;28;20025;-65
2021/07/13 11:23:25;;;;;;;19.33;13.60;;;;;;;;;;5030748;28;20048;-65
2021/07/13 11:26:01;;;;;;;23.15;14.07;;;;;;;;;;5023135;28;20068;-65
2021/07/13 11:28:26;;;;;;;20.35;13.18;;;;;;;;;;5026750;28;20028;-65
2021/07/13 11:30:52;;;;;;;16.02;12.43;;;;;;;;;;5027507;28;20025;-65
2021/07/13 11:33:24;;;;;;;21.27;13.05;;;;;;;;;;5031142;28;20120;-65
2021/07/13 11:35:54;;;;;;;20.25;14.13;;;;;;;;;;5031017;28;20025;-65
2021/07/13 11:38:24;;;;;;;17.50;11.90;;;;;;;;;;5031375;28;20140;-65
2021/07/13 11:41:08;;;;;;;20.58;11.43;;;;;;;;;;5029856;28;20033;-65
2021/07/13 11:43:33;;;;;;;14.60;10.40;;;;;;;;;;5030775;28;20440;-64
2021/07/13 11:46:19;;;;;;;16.33;10.50;;;;;;;;;;5026499;28;20025;-64
2021/07/13 11:48:54;;;;;;;13.15;9.60;;;;;;;;;;5042143;28;20024;-64
2021/07/13 11:51:27;;;;;;;13.90;9.77;;;;;;;;;;5030106;28;20022;-64
2021/07/13 11:54:10;;;;;;;13.18;9.70;;;;;;;;;;5029895;28;20018;-64
2021/07/13 11:56:36;;;;;;;17.98;10.15;;;;;;;;;;5023847;28;20017;-64
2021/07/13 11:59:03;;;;;;;18.20;10.27;;;;;;;;;;5030331;28;20041;-64
2021/07/13 12:01:29;;;;;;;14.20;8.05;;;;;;;;;;5030433;28;20029;-64
2021/07/13 12:03:59;;;;;;;11.35;7.03;;;;;;;;;;5030358;28;20017;-64
2021/07/13 12:06:24;;;;;;;10.80;6.78;;;;;;;;;;5030270;28;20105;-64
2021/07/13 12:08:54;;;;;;;11.13;6.77;;;;;;;;;;5030335;28;20100;-64
2021/07/13 12:11:24;;;;;;;12.00;6.90;;;;;;;;;;5022769;28;20796;-65
2021/07/13 12:13:49;;;;;;;12.20;6.43;;;;;;;;;;5030880;28;20075;-65
2021/07/13 12:16:18;;;;;;;12.05;6.40;;;;;;;;;;5029860;28;20279;-64
2021/07/13 12:18:43;;;;;;;9.88;6.07;;;;;;;;;;5029755;28;20057;-65
2021/07/13 12:21:12;;;;;;;11.02;5.72;;;;;;;;;;5011015;28;20072;-65
2021/07/13 12:23:38;;;;;;;13.23;7.87;;;;;;;;;;5021317;28;20048;-65
2021/07/13 12:26:21;;;;;;;17.58;6.20;;;;;;;;;;5029359;28;20707;-65
2021/07/13 12:28:58;;;;;;;11.20;6.25;;;;;;;;;;5029917;28;20021;-65
2021/07/13 12:31:23;;;;;;;12.45;5.88;;;;;;;;;;5036577;28;20087;-65
2021/07/13 12:33:52;;;;;;;9.05;6.07;;;;;;;;;;5029807;28;20017;-65
2021/07/13 12:36:23;;;;;;;14.40;7.82;;;;;;;;;;5029006;28;20037;-65
2021/07/13 12:38:48;;;;;;;18.65;8.05;;;;;;;;;;5029813;28;20025;-65
2021/07/13 12:41:14;;;;;;;15.30;8.02;;;;;;;;;;5024097;28;20029;-65
2021/07/13 12:43:39;;;;;;;14.55;7.43;;;;;;;;;;5029438;28;20056;-64
2021/07/13 12:46:23;;;;;;;11.53;7.50;;;;;;;;;;5028765;28;20018;-65
2021/07/13 12:48:49;;;;;;;12.93;8.13;;;;;;;;;;5028155;28;20280;-64
2021/07/13 12:51:21;;;;;;;10.33;7.23;;;;;;;;;;5029072;28;20034;-64
2021/07/13 12:53:46;;;;;;;12.88;8.13;;;;;;;;;;5029328;28;20029;-64
2021/07/13 12:56:11;;;;;;;12.27;7.27;;;;;;;;;;5028307;28;20021;-65
2021/07/13 12:58:36;;;;;;;11.83;7.60;;;;;;;;;;5029043;28;20478;-65
2021/07/13 13:01:10;;;;;;;11.90;7.80;;;;;;;;;;5029369;28;20025;-65
2021/07/13 13:03:36;;;;;;;17.15;9.20;;;;;;;;;;5028965;28;20033;-65
2021/07/13 13:06:03;;;;;;;16.52;10.43;;;;;;;;;;5028885;28;20152;-65
2021/07/13 13:08:31;;;;;;;15.00;9.48;;;;;;;;;;5028856;28;20117;-66
2021/07/13 13:10:59;;;;;;;14.15;9.98;;;;;;;;;;5027938;28;20500;-66
2021/07/13 13:13:31;;;;;;;18.63;9.80;;;;;;;;;;5029005;28;20025;-65
2021/07/13 13:15:57;;;;;;;18.20;10.63;;;;;;;;;;5025798;28;20022;-65
2021/07/13 13:18:23;;;;;;;15.27;10.32;;;;;;;;;;5029001;28;20567;-64
2021/07/13 13:20:49;;;;;;;18.55;10.50;;;;;;;;;;5029056;28;20097;-65
2021/07/13 13:23:14;;;;;;;16.08;11.07;;;;;;;;;;5028740;28;20029;-65
2021/07/13 13:25:40;;;;;;;15.38;10.43;;;;;;;;;;5029350;28;20519;-65
2021/07/13 13:28:05;;;;;;;16.60;10.70;;;;;;;;;;5031603;28;20025;-65
2021/07/13 13:30:31;;;;;;;18.85;11.82;;;;;;;;;;5032924;28;20470;-65
2021/07/13 13:32:56;;;;;;;19.42;12.52;;;;;;;;;;5031937;28;20030;-65
2021/07/13 13:35:41;;;;;;;17.25;11.95;;;;;;;;;;5032487;28;20083;-66
2021/07/13 13:38:12;;;;;;;21.30;14.32;;;;;;;;;;5032926;28;20025;-63
2021/07/13 13:40:38;;;;;;;16.95;12.60;;;;;;;;;;5032067;28;20026;-65
2021/07/13 13:43:04;;;;;;;19.05;13.10;;;;;;;;;;5032580;28;20211;-65
2021/07/13 13:45:29;;;;;;;19.63;14.30;;;;;;;;;;5033223;28;20388;-65
2021/07/13 13:47:54;;;;;;;20.25;14.65;;;;;;;;;;5033136;28;20029;-64
2021/07/13 13:50:19;;;;;;;18.00;13.40;;;;;;;;;;5031643;28;20052;-65
2021/07/13 13:52:45;;;;;;;19.83;14.63;;;;;;;;;;5032869;28;20025;-65
2021/07/13 13:55:10;;;;;;;18.58;14.45;;;;;;;;;;5032345;28;20744;-64
2021/07/13 13:57:35;;;;;;;18.20;13.73;;;;;;;;;;5032966;28;20070;-64
2021/07/13 14:00:01;;;;;;;21.53;15.53;;;;;;;;;;5031682;28;20075;-65
2021/07/13 14:02:26;;;;;;;21.83;17.23;;;;;;;;;;5032210;28;20275;-64
2021/07/13 14:04:51;;;;;;;30.83;18.97;;;;;;;;;;5032333;28;20025;-65
2021/07/13 14:07:16;;;;;;;25.70;18.00;;;;;;;;;;5032006;28;20476;-65
2021/07/13 14:09:43;;;;;;;25.52;18.17;;;;;;;;;;5032476;28;20129;-65
2021/07/13 14:12:09;;;;;;;24.30;18.15;;;;;;;;;;5032388;28;20021;-65
2021/07/13 14:14:35;;;;;;;26.98;18.35;;;;;;;;;;5031643;28;20041;-64
2021/07/13 14:17:00;;;;;;;28.20;18.98;;;;;;;;;;5028181;28;20103;-66
2021/07/13 14:19:26;;;;;;;26.60;18.83;;;;;;;;;;5031946;28;20025;-65
2021/07/13 14:21:51;;;;;;;24.02;19.20;;;;;;;;;;5031844;28;20052;-65